createdAt,value
2017-11-20T00:01:09.081Z,58.90
2017-11-20T00:03:36.598Z,59.20
2017-11-20T00:06:04.211Z,59.50
2017-11-20T00:08:31.764Z,59.80
2017-11-20T00:11:00.183Z,59.80
2017-11-20T00:13:27.683Z,60.00
2017-11-20T00:15:55.249Z,60.00
2017-11-20T00:18:23.521Z,60.00
2017-11-20T00:20:51.049Z,60.00
2017-11-20T00:23:19.332Z,59.90
2017-11-20T00:25:47.621Z,59.90
2017-11-20T00:28:15.746Z,59.80
2017-11-20T00:30:43.250Z,59.60
2017-11-20T00:33:10.799Z,59.40
2017-11-20T00:35:38.353Z,59.50
2017-11-20T00:38:06.636Z,58.90
2017-11-20T00:40:34.162Z,58.90
2017-11-20T00:43:01.708Z,58.80
2017-11-20T00:45:29.247Z,59.10
2017-11-20T00:47:56.952Z,58.80
2017-11-20T00:50:25.220Z,59.00
2017-11-20T00:52:52.782Z,59.00
2017-11-20T00:55:20.484Z,59.20
2017-11-20T00:57:48.025Z,59.40
2017-11-20T01:00:16.384Z,59.80
2017-11-20T01:02:43.986Z,59.80
2017-11-20T01:05:11.558Z,60.20
2017-11-20T01:07:39.117Z,60.40
2017-11-20T01:10:06.792Z,60.50
2017-11-20T01:12:34.356Z,60.70
2017-11-20T01:15:01.876Z,60.70
2017-11-20T01:17:29.488Z,61.00
2017-11-20T01:19:57.019Z,60.90
2017-11-20T01:22:24.576Z,61.00
2017-11-20T01:24:52.100Z,60.70
2017-11-20T01:27:20.411Z,60.50
2017-11-20T01:29:47.929Z,60.50
2017-11-20T01:32:16.231Z,60.50
2017-11-20T01:34:43.752Z,60.50
2017-11-20T01:37:11.301Z,60.20
2017-11-20T01:39:38.802Z,60.20
2017-11-20T01:42:06.344Z,61.30
2017-11-20T01:44:34.636Z,60.50
2017-11-20T01:47:02.199Z,60.30
2017-11-20T01:49:29.769Z,60.30
2017-11-20T01:51:57.319Z,60.30
2017-11-20T01:54:24.873Z,60.30
2017-11-20T01:56:53.172Z,60.50
2017-11-20T01:59:20.763Z,60.40
2017-11-20T02:01:48.428Z,60.50
2017-11-20T02:04:15.967Z,60.60
2017-11-20T02:06:43.508Z,60.60
2017-11-20T02:09:11.103Z,60.60
2017-11-20T02:11:38.636Z,60.40
2017-11-20T02:14:06.178Z,60.70
2017-11-20T02:16:33.745Z,60.60
2017-11-20T02:19:01.270Z,60.50
2017-11-20T02:21:29.620Z,60.20
2017-11-20T02:23:57.641Z,60.20
2017-11-20T02:26:25.244Z,60.10
2017-11-20T02:28:52.835Z,60.20
2017-11-20T02:31:20.513Z,60.00
2017-11-20T02:33:48.828Z,60.00
2017-11-20T02:36:16.399Z,60.00
2017-11-20T02:38:43.937Z,60.20
2017-11-20T02:41:11.517Z,60.00
2017-11-20T02:43:39.088Z,59.60
2017-11-20T02:46:06.624Z,59.60
2017-11-20T02:48:34.152Z,59.80
2017-11-20T02:51:02.474Z,59.90
2017-11-20T02:53:30.033Z,59.80
2017-11-20T02:55:57.624Z,60.00
2017-11-20T02:58:25.219Z,60.30
2017-11-20T03:00:52.818Z,60.50
2017-11-20T03:03:20.390Z,60.10
2017-11-20T03:05:47.925Z,60.30
2017-11-20T03:08:15.488Z,60.30
2017-11-20T03:10:42.989Z,60.10
2017-11-20T03:13:10.588Z,60.10
2017-11-20T03:15:38.155Z,60.20
2017-11-20T03:18:05.702Z,60.30
2017-11-20T03:20:33.248Z,60.30
2017-11-20T03:23:01.606Z,60.70
2017-11-20T03:25:29.951Z,61.00
2017-11-20T03:27:57.457Z,61.00
2017-11-20T03:30:25.845Z,61.00
2017-11-20T03:32:53.372Z,60.90
2017-11-20T03:35:21.025Z,61.00
2017-11-20T03:37:48.558Z,61.10
2017-11-20T03:40:16.068Z,61.50
2017-11-20T03:42:44.392Z,61.80
2017-11-20T03:45:11.906Z,61.70
2017-11-20T03:47:40.225Z,62.00
2017-11-20T03:50:08.541Z,62.10
2017-11-20T03:52:36.060Z,62.00
2017-11-20T03:55:03.714Z,62.80
2017-11-20T03:57:31.218Z,61.70
2017-11-20T03:59:58.714Z,61.50
2017-11-20T04:02:26.266Z,61.80
2017-11-20T04:04:54.548Z,62.10
2017-11-20T04:07:22.090Z,62.10
2017-11-20T04:09:50.411Z,62.20
2017-11-20T04:12:17.951Z,62.20
2017-11-20T04:14:45.460Z,62.20
2017-11-20T04:17:13.005Z,62.00
2017-11-20T04:19:40.524Z,62.10
2017-11-20T04:22:08.280Z,62.00
2017-11-20T04:24:35.773Z,62.10
2017-11-20T04:27:03.329Z,62.60
2017-11-20T04:29:30.923Z,63.00
2017-11-20T04:31:58.529Z,63.00
2017-11-20T04:34:26.211Z,63.60
2017-11-20T04:36:53.719Z,64.20
2017-11-20T04:39:21.237Z,65.10
2017-11-20T04:41:48.769Z,65.30
2017-11-20T04:44:16.313Z,65.10
2017-11-20T04:46:43.918Z,64.90
2017-11-20T04:49:11.493Z,65.00
2017-11-20T04:51:39.004Z,64.50
2017-11-20T04:54:06.576Z,64.40
2017-11-20T04:56:34.159Z,64.30
2017-11-20T04:59:01.746Z,64.30
2017-11-20T05:01:29.263Z,63.70
2017-11-20T05:03:56.775Z,64.00
2017-11-20T05:06:24.333Z,64.00
2017-11-20T05:08:51.881Z,63.70
2017-11-20T05:11:19.774Z,63.40
2017-11-20T05:13:48.084Z,63.10
2017-11-20T05:16:16.825Z,63.10
2017-11-20T05:18:44.346Z,63.00
2017-11-20T05:21:12.099Z,62.80
2017-11-20T05:23:39.682Z,62.40
2017-11-20T05:26:07.181Z,62.10
2017-11-20T05:28:34.683Z,62.00
2017-11-20T05:31:02.243Z,62.00
2017-11-20T05:33:29.773Z,62.00
2017-11-20T05:35:57.273Z,61.70
2017-11-20T05:38:34.062Z,61.80
2017-11-20T05:41:02.018Z,61.90
2017-11-20T05:43:30.013Z,61.80
2017-11-20T05:45:59.125Z,62.00
2017-11-20T05:48:27.357Z,61.90
2017-11-20T05:50:54.870Z,62.00
2017-11-20T05:53:22.415Z,61.80
2017-11-20T05:55:49.965Z,62.00
2017-11-20T05:58:17.523Z,61.50
2017-11-20T06:00:45.064Z,61.40
2017-11-20T06:03:12.598Z,61.50
2017-11-20T06:05:41.180Z,61.60
2017-11-20T06:08:08.748Z,61.70
2017-11-20T06:10:36.339Z,61.30
2017-11-20T06:13:05.668Z,61.20
2017-11-20T06:15:35.452Z,61.40
2017-11-20T06:18:03.011Z,61.40
2017-11-20T06:20:30.587Z,61.50
2017-11-20T06:22:58.219Z,61.50
2017-11-20T06:25:25.737Z,61.60
2017-11-20T06:27:53.253Z,61.40
2017-11-20T06:30:21.901Z,61.50
2017-11-20T06:32:49.443Z,61.80
2017-11-20T06:35:16.979Z,61.70
2017-11-20T06:37:49.944Z,61.70
2017-11-20T06:40:17.452Z,61.70
2017-11-20T06:42:44.984Z,61.10
2017-11-20T06:45:12.494Z,61.20
2017-11-20T06:47:40.058Z,61.10
2017-11-20T06:50:07.601Z,60.90
2017-11-20T06:52:35.155Z,60.70
2017-11-20T06:55:02.681Z,61.00
2017-11-20T06:57:30.274Z,60.70
2017-11-20T06:59:57.872Z,60.80
2017-11-20T07:02:25.814Z,60.80
2017-11-20T07:04:53.312Z,60.70
2017-11-20T07:07:21.607Z,60.90
2017-11-20T07:09:49.937Z,61.50
2017-11-20T07:12:17.576Z,61.50
2017-11-20T07:14:45.123Z,62.10
2017-11-20T07:17:12.650Z,63.10
2017-11-20T07:19:40.207Z,63.50
2017-11-20T07:22:08.498Z,63.80
2017-11-20T07:24:36.799Z,63.10
2017-11-20T07:27:04.319Z,63.00
2017-11-20T07:29:43.605Z,63.20
2017-11-20T07:32:11.263Z,62.80
2017-11-20T07:34:50.783Z,63.20
2017-11-20T07:40:24.351Z,62.80
2017-11-20T07:42:51.899Z,63.10
2017-11-20T07:45:19.866Z,63.20
2017-11-20T07:47:47.376Z,63.40
2017-11-20T07:50:15.714Z,63.60
2017-11-20T07:52:43.246Z,63.60
2017-11-20T07:55:10.742Z,63.40
2017-11-20T07:57:38.278Z,63.80
2017-11-20T08:00:05.849Z,63.60
2017-11-20T08:02:33.414Z,63.00
2017-11-20T08:05:01.016Z,62.80
2017-11-20T08:07:28.579Z,62.70
2017-11-20T08:09:56.875Z,61.80
2017-11-20T08:12:25.320Z,61.90
2017-11-20T08:14:53.602Z,62.00
2017-11-20T08:17:21.935Z,61.90
2017-11-20T08:19:49.660Z,62.60
2017-11-20T08:22:17.254Z,61.90
2017-11-20T08:24:44.837Z,61.60
2017-11-20T08:27:12.388Z,61.40
2017-11-20T08:29:39.951Z,61.30
2017-11-20T08:32:07.528Z,61.30
2017-11-20T08:34:35.084Z,61.10
2017-11-20T08:37:04.161Z,60.60
2017-11-20T08:39:34.134Z,60.60
2017-11-20T08:41:59.247Z,60.30
2017-11-20T08:44:26.997Z,60.20
2017-11-20T08:46:54.614Z,60.20
2017-11-20T08:49:22.160Z,59.90
2017-11-20T08:51:49.788Z,59.70
2017-11-20T08:54:17.480Z,59.20
2017-11-20T08:56:45.009Z,59.20
2017-11-20T08:59:12.618Z,59.10
2017-11-20T09:01:40.174Z,58.60
2017-11-20T09:04:07.725Z,58.50
2017-11-20T09:06:35.261Z,58.30
2017-11-20T09:09:02.827Z,58.30
2017-11-20T09:11:30.438Z,58.10
2017-11-20T09:13:58.830Z,58.00
2017-11-20T09:16:27.170Z,57.80
2017-11-20T09:18:54.741Z,57.80
2017-11-20T09:21:23.296Z,57.50
2017-11-20T09:23:50.911Z,57.50
2017-11-20T09:26:19.324Z,57.60
2017-11-20T09:28:46.891Z,57.60
2017-11-20T09:31:14.478Z,57.30
2017-11-20T09:33:41.979Z,57.60
2017-11-20T09:36:09.485Z,57.60
2017-11-20T09:38:37.092Z,57.70
2017-11-20T09:41:04.626Z,57.80
2017-11-20T09:43:33.644Z,57.80
2017-11-20T09:46:02.023Z,57.80
2017-11-20T09:48:29.632Z,57.70
2017-11-20T09:50:57.157Z,57.80
2017-11-20T09:53:24.767Z,57.70
2017-11-20T09:55:52.825Z,57.30
2017-11-20T09:58:20.430Z,57.30
2017-11-20T10:00:48.107Z,57.20
2017-11-20T10:03:15.709Z,56.90
2017-11-20T10:05:43.309Z,57.10
2017-11-20T10:08:11.063Z,57.30
2017-11-20T10:10:38.582Z,57.10
2017-11-20T10:13:06.141Z,57.20
2017-11-20T10:15:34.981Z,57.40
2017-11-20T10:18:03.360Z,57.50
2017-11-20T10:20:30.972Z,57.50
2017-11-20T10:22:58.530Z,57.40
2017-11-20T10:25:26.079Z,57.20
2017-11-20T10:27:53.645Z,57.20
2017-11-20T10:30:22.249Z,57.50
2017-11-20T10:32:50.038Z,57.80
2017-11-20T10:35:17.570Z,57.80
2017-11-20T10:37:45.184Z,57.70
2017-11-20T10:40:12.755Z,57.60
2017-11-20T10:42:41.026Z,57.50
2017-11-20T10:45:09.333Z,57.30
2017-11-20T10:47:36.908Z,57.30
2017-11-20T10:50:05.246Z,57.60
2017-11-20T10:52:32.970Z,57.50
2017-11-20T10:55:01.325Z,57.70
2017-11-20T10:57:28.881Z,57.70
2017-11-20T10:59:56.649Z,57.50
2017-11-20T11:02:24.274Z,57.20
2017-11-20T11:04:51.816Z,57.30
2017-11-20T11:07:20.430Z,57.70
2017-11-20T11:09:47.994Z,57.70
2017-11-20T11:12:15.566Z,57.50
2017-11-20T11:14:43.168Z,57.10
2017-11-20T11:17:11.535Z,57.00
2017-11-20T11:19:39.073Z,57.00
2017-11-20T11:22:07.236Z,56.90
2017-11-20T11:24:35.201Z,57.30
2017-11-20T11:27:02.741Z,56.70
2017-11-20T11:29:30.309Z,56.40
2017-11-20T11:31:57.880Z,56.10
2017-11-20T11:34:25.496Z,55.50
2017-11-20T11:36:53.195Z,55.10
2017-11-20T11:39:21.593Z,55.10
2017-11-20T11:41:49.341Z,54.70
2017-11-20T11:44:17.708Z,54.40
2017-11-20T11:46:45.260Z,54.50
2017-11-20T11:49:12.924Z,54.70
2017-11-20T11:51:40.531Z,54.60
2017-11-20T11:54:08.244Z,54.70
2017-11-20T11:56:35.818Z,55.00
2017-11-20T11:59:04.063Z,55.00
2017-11-20T12:01:32.474Z,54.60
2017-11-20T12:04:00.051Z,54.60
2017-11-20T12:06:27.647Z,54.20
2017-11-20T12:08:55.270Z,53.80
2017-11-20T12:11:22.915Z,53.70
2017-11-20T12:13:50.449Z,53.10
2017-11-20T12:16:18.950Z,53.70
2017-11-20T12:18:46.555Z,53.70
2017-11-20T12:21:14.131Z,53.30
2017-11-20T12:23:42.053Z,53.40
2017-11-20T12:26:09.625Z,53.60
2017-11-20T12:28:37.190Z,53.50
2017-11-20T12:31:04.704Z,53.10
2017-11-20T12:33:32.321Z,53.20
2017-11-20T12:35:59.855Z,53.60
2017-11-20T12:38:27.420Z,53.80
2017-11-20T12:40:55.017Z,53.50
2017-11-20T12:43:23.303Z,53.70
2017-11-20T12:45:51.663Z,53.80
2017-11-20T12:48:19.192Z,53.80
2017-11-20T12:50:46.820Z,53.70
2017-11-20T12:53:14.377Z,53.90
2017-11-20T12:55:42.675Z,53.90
2017-11-20T12:58:10.305Z,53.90
2017-11-20T13:00:37.897Z,54.00
2017-11-20T13:03:05.468Z,54.20
2017-11-20T13:05:33.128Z,54.10
2017-11-20T13:08:00.688Z,54.10
2017-11-20T13:10:28.224Z,54.70
2017-11-20T13:12:55.905Z,55.00
2017-11-20T13:15:23.464Z,54.90
2017-11-20T13:17:51.004Z,55.00
2017-11-20T13:20:18.920Z,55.00
2017-11-20T13:22:46.547Z,55.20
2017-11-20T13:25:14.095Z,55.10
2017-11-20T13:27:41.676Z,55.10
2017-11-20T13:30:09.246Z,55.50
2017-11-20T13:32:36.791Z,55.60
2017-11-20T13:35:05.334Z,55.80
2017-11-20T13:37:34.663Z,55.70
2017-11-20T13:40:02.229Z,55.60
2017-11-20T13:42:30.309Z,55.60
2017-11-20T13:44:58.641Z,55.50
2017-11-20T13:47:26.211Z,55.30
2017-11-20T13:49:54.513Z,55.20
2017-11-20T13:52:22.132Z,55.20
2017-11-20T13:54:49.720Z,55.20
2017-11-20T13:57:18.069Z,55.00
2017-11-20T13:59:45.614Z,55.00
2017-11-20T14:02:13.641Z,55.00
2017-11-20T14:04:41.240Z,54.80
2017-11-20T14:07:08.807Z,54.40
2017-11-20T14:09:36.321Z,54.50
2017-11-20T14:12:04.510Z,54.00
2017-11-20T14:14:32.116Z,53.70
2017-11-20T14:16:59.704Z,53.30
2017-11-20T14:19:27.273Z,53.20
2017-11-20T14:21:54.832Z,53.10
2017-11-20T14:24:23.208Z,53.10
2017-11-20T14:26:50.750Z,53.10
2017-11-20T14:29:19.280Z,53.10
2017-11-20T14:31:47.810Z,53.10
2017-11-20T14:34:15.381Z,53.20
2017-11-20T14:36:43.661Z,53.10
2017-11-20T14:39:12.010Z,53.20
2017-11-20T14:41:39.530Z,53.20
2017-11-20T14:44:07.160Z,53.10
2017-11-20T14:46:34.910Z,53.40
2017-11-20T14:49:02.484Z,53.60
2017-11-20T14:51:39.620Z,54.00
2017-11-20T14:54:09.587Z,54.00
2017-11-20T14:56:37.999Z,54.30
2017-11-20T14:59:05.529Z,54.30
2017-11-20T15:01:34.303Z,54.50
2017-11-20T15:04:02.654Z,54.60
2017-11-20T15:06:30.209Z,54.60
2017-11-20T15:08:58.475Z,55.30
2017-11-20T15:11:26.294Z,54.70
2017-11-20T15:13:53.909Z,54.50
2017-11-20T15:16:21.843Z,54.60
2017-11-20T15:18:50.000Z,54.80
2017-11-20T15:21:17.607Z,55.00
2017-11-20T15:23:45.214Z,55.00
2017-11-20T15:26:12.822Z,54.80
2017-11-20T15:28:40.434Z,55.00
2017-11-20T15:31:09.164Z,55.00
2017-11-20T15:33:37.518Z,54.70
2017-11-20T15:36:05.152Z,54.90
2017-11-20T15:38:33.555Z,55.20
2017-11-20T15:41:02.582Z,55.20
2017-11-20T15:43:30.118Z,55.20
2017-11-20T15:45:57.696Z,55.20
2017-11-20T15:48:28.518Z,54.90
2017-11-20T15:50:56.926Z,54.20
2017-11-20T15:53:25.395Z,54.40
2017-11-20T15:55:52.964Z,54.20
2017-11-20T15:58:25.289Z,54.20
2017-11-20T16:00:53.011Z,53.90
2017-11-20T16:03:20.867Z,54.30
2017-11-20T16:05:51.609Z,54.40
2017-11-20T16:08:19.941Z,54.40
2017-11-20T16:10:49.610Z,54.30
2017-11-20T16:13:17.426Z,54.60
2017-11-20T16:15:45.063Z,54.70
2017-11-20T16:18:12.626Z,55.20
2017-11-20T16:20:40.953Z,54.80
2017-11-20T16:23:08.533Z,54.80
2017-11-20T16:25:36.587Z,54.70
2017-11-20T16:28:04.144Z,54.30
2017-11-20T16:30:32.933Z,54.30
2017-11-20T16:33:01.542Z,54.50
2017-11-20T16:35:29.158Z,54.30
2017-11-20T16:37:57.933Z,54.50
2017-11-20T16:40:25.482Z,54.40
2017-11-20T16:42:53.627Z,54.30
2017-11-20T16:45:21.174Z,54.40
2017-11-20T16:47:49.361Z,55.00
2017-11-20T16:50:18.282Z,54.20
2017-11-20T16:52:45.781Z,54.40
2017-11-20T16:55:13.281Z,54.30
2017-11-20T16:57:53.977Z,53.90
2017-11-20T17:00:32.161Z,53.90
2017-11-20T17:03:08.377Z,54.10
2017-11-20T17:05:35.915Z,54.00
2017-11-20T17:08:03.443Z,53.90
2017-11-20T17:10:31.794Z,53.90
2017-11-20T17:12:59.649Z,53.80
2017-11-20T17:15:27.263Z,54.50
2017-11-20T17:17:54.799Z,54.30
2017-11-20T17:20:23.312Z,55.00
2017-11-20T17:22:51.282Z,54.90
2017-11-20T17:25:19.743Z,55.20
2017-11-20T17:27:48.051Z,56.80
2017-11-20T17:30:15.632Z,56.80
2017-11-20T17:32:43.770Z,57.40
2017-11-20T17:35:11.328Z,57.60
2017-11-20T17:37:38.876Z,57.70
2017-11-20T17:40:07.706Z,58.00
2017-11-20T17:42:35.600Z,57.90
2017-11-20T17:45:04.119Z,58.00
2017-11-20T17:47:32.627Z,58.30
2017-11-20T17:50:00.117Z,58.20
2017-11-20T17:52:27.694Z,58.30
2017-11-20T17:54:55.288Z,58.60
2017-11-20T17:57:22.810Z,58.60
2017-11-20T17:59:50.361Z,58.80
2017-11-20T18:02:17.919Z,59.10
2017-11-20T18:04:46.419Z,59.30
2017-11-20T18:07:14.691Z,59.20
2017-11-20T18:09:42.857Z,59.10
2017-11-20T18:12:10.603Z,59.00
2017-11-20T18:14:39.059Z,59.10
2017-11-20T18:17:07.495Z,59.00
2017-11-20T18:19:35.204Z,59.00
2017-11-20T18:22:02.745Z,59.10
2017-11-20T18:24:30.398Z,59.00
2017-11-20T18:26:58.687Z,59.30
2017-11-20T18:29:26.305Z,59.30
2017-11-20T18:31:53.856Z,59.10
2017-11-20T18:34:21.430Z,58.90
2017-11-20T18:36:48.962Z,58.50
2017-11-20T18:39:16.534Z,58.10
2017-11-20T18:41:44.064Z,58.10
2017-11-20T18:44:11.566Z,57.90
2017-11-20T18:46:40.482Z,57.90
2017-11-20T18:49:09.517Z,57.70
2017-11-20T18:51:37.373Z,57.60
2017-11-20T18:54:06.995Z,57.50
2017-11-20T18:56:35.766Z,57.50
2017-11-20T18:59:04.556Z,57.20
2017-11-20T19:01:44.024Z,57.10
2017-11-20T19:04:24.672Z,57.30
2017-11-20T19:07:04.793Z,57.50
2017-11-20T19:09:34.838Z,57.20
2017-11-20T19:12:02.902Z,57.20
2017-11-20T19:14:31.030Z,57.40
2017-11-20T19:16:59.458Z,57.50
2017-11-20T19:19:28.904Z,57.50
2017-11-20T19:21:57.838Z,57.60
2017-11-20T19:24:26.886Z,57.70
2017-11-20T19:26:55.799Z,57.60
2017-11-20T19:29:23.710Z,57.50
2017-11-20T19:31:52.037Z,57.50
2017-11-20T19:34:20.437Z,57.50
2017-11-20T19:36:50.957Z,57.70
2017-11-20T19:39:22.294Z,57.70
2017-11-20T19:41:53.452Z,57.70
2017-11-20T19:44:24.124Z,57.70
2017-11-20T19:46:53.040Z,57.50
2017-11-20T19:49:21.764Z,57.40
2017-11-20T19:51:50.683Z,57.60
2017-11-20T19:54:20.364Z,57.60
2017-11-20T19:56:53.465Z,57.70
2017-11-20T19:59:24.012Z,57.70
2017-11-20T20:01:52.448Z,57.70
2017-11-20T20:04:20.684Z,57.50
2017-11-20T20:06:50.331Z,57.60
2017-11-20T20:09:18.573Z,57.80
2017-11-20T20:11:48.169Z,57.80
2017-11-20T20:14:29.235Z,57.70
2017-11-20T20:17:23.060Z,57.80
2017-11-20T20:19:52.892Z,57.70
2017-11-20T20:22:22.564Z,57.40
2017-11-20T20:24:51.221Z,57.40
2017-11-20T20:27:21.020Z,57.70
2017-11-20T20:29:49.450Z,57.60
2017-11-20T20:32:19.083Z,57.30
2017-11-20T20:34:48.769Z,57.70
2017-11-20T20:37:17.122Z,57.70
2017-11-20T20:39:45.420Z,57.90
2017-11-20T20:42:13.905Z,58.20
2017-11-20T20:44:42.825Z,58.40
2017-11-20T20:47:12.460Z,58.70
2017-11-20T20:49:42.501Z,58.70
2017-11-20T20:52:11.435Z,59.00
2017-11-20T20:54:40.202Z,59.30
2017-11-20T20:57:08.728Z,59.70
2017-11-20T20:59:38.273Z,59.70
2017-11-20T21:02:05.870Z,59.70
2017-11-20T21:04:33.373Z,60.10
2017-11-20T21:07:00.963Z,60.90
2017-11-20T21:09:34.152Z,61.20
2017-11-20T21:12:07.474Z,61.60
2017-11-20T21:14:35.105Z,61.80
2017-11-20T21:17:02.658Z,61.90
2017-11-20T21:19:30.204Z,62.00
2017-11-20T21:21:57.888Z,61.90
2017-11-20T21:24:25.405Z,62.00
2017-11-20T21:26:52.934Z,62.30
2017-11-20T21:29:20.652Z,62.00
2017-11-20T21:31:48.209Z,61.90
2017-11-20T21:34:15.758Z,62.20
2017-11-20T21:36:43.359Z,61.90
2017-11-20T21:39:10.884Z,61.10
2017-11-20T21:41:38.433Z,61.70
2017-11-20T21:44:05.950Z,62.00
2017-11-20T21:46:33.536Z,62.30
2017-11-20T21:49:01.960Z,62.60
2017-11-20T21:51:29.487Z,62.60
2017-11-20T21:53:57.067Z,63.10
2017-11-20T21:56:24.587Z,63.80
2017-11-20T21:58:52.113Z,64.30
2017-11-20T22:01:19.660Z,64.50
2017-11-20T22:03:47.475Z,65.00
2017-11-20T22:06:15.756Z,65.60
2017-11-20T22:08:44.731Z,65.60
2017-11-20T22:11:12.428Z,66.10
2017-11-20T22:13:39.968Z,66.70
2017-11-20T22:16:09.200Z,67.00
2017-11-20T22:18:36.837Z,67.00
2017-11-20T22:21:04.393Z,67.60
2017-11-20T22:23:32.194Z,67.80
2017-11-20T22:26:00.133Z,68.60
2017-11-20T22:28:28.887Z,68.80
2017-11-20T22:30:56.860Z,68.70
2017-11-20T22:33:25.819Z,68.00
2017-11-20T22:35:54.203Z,68.00
2017-11-20T22:38:22.318Z,68.20
2017-11-20T22:40:50.856Z,68.90
2017-11-20T22:43:18.488Z,68.80
2017-11-20T22:45:46.073Z,68.80
2017-11-20T22:48:13.629Z,68.60
2017-11-20T22:50:41.280Z,68.70
2017-11-20T22:53:09.682Z,69.10
2017-11-20T22:55:37.849Z,68.90
2017-11-20T22:58:05.474Z,68.30
2017-11-20T23:00:33.077Z,68.00
2017-11-20T23:03:01.023Z,68.00
2017-11-20T23:05:28.579Z,68.20
2017-11-20T23:07:56.211Z,68.20
2017-11-20T23:10:25.229Z,68.00
2017-11-20T23:12:52.776Z,68.00
2017-11-20T23:15:20.288Z,68.10
2017-11-20T23:17:47.906Z,68.00
2017-11-20T23:20:16.314Z,68.00
2017-11-20T23:22:43.829Z,68.30
2017-11-20T23:25:12.146Z,68.00
2017-11-20T23:27:39.752Z,68.00
2017-11-20T23:30:08.719Z,68.40
2017-11-20T23:32:36.384Z,68.40
2017-11-20T23:35:03.924Z,68.50
2017-11-20T23:37:32.237Z,67.80
2017-11-20T23:39:59.815Z,68.30
2017-11-20T23:42:28.420Z,68.10
2017-11-20T23:44:56.022Z,68.10
2017-11-20T23:47:23.540Z,68.80
2017-11-20T23:49:52.419Z,68.40
2017-11-20T23:52:19.957Z,68.30
2017-11-20T23:54:48.447Z,68.40
2017-11-20T23:57:16.706Z,68.00
2017-11-20T23:59:44.220Z,68.00
